sensor_id;sensor_type;location;lat;lon;timestamp;pressure;altitude;pressure_sealevel;temperature;humidity
25080;BME280;13071;48.868;9.996;2023-06-14T00:02:22;96078.50;;;13.36;63.67
25080;BME280;13071;48.868;9.996;2023-06-14T00:04:49;96079.00;;;13.23;63.86
25080;BME280;13071;48.868;9.996;2023-06-14T00:07:18;96083.53;;;13.15;64.43
25080;BME280;13071;48.868;9.996;2023-06-14T00:09:45;96079.59;;;13.13;64.17
25080;BME280;13071;48.868;9.996;2023-06-14T00:12:13;96086.25;;;13.15;64.77
25080;BME280;13071;48.868;9.996;2023-06-14T00:14:40;96078.03;;;13.12;64.56
25080;BME280;13071;48.868;9.996;2023-06-14T00:17:06;96082.00;;;12.98;65.02
25080;BME280;13071;48.868;9.996;2023-06-14T00:19:34;96080.28;;;12.90;65.27
25080;BME280;13071;48.868;9.996;2023-06-14T00:22:01;96077.22;;;12.92;65.08
25080;BME280;13071;48.868;9.996;2023-06-14T00:24:28;96075.38;;;12.96;64.94
25080;BME280;13071;48.868;9.996;2023-06-14T00:26:54;96073.34;;;12.93;65.06
25080;BME280;13071;48.868;9.996;2023-06-14T00:29:23;96076.44;;;12.91;65.17
25080;BME280;13071;48.868;9.996;2023-06-14T00:31:50;96071.94;;;12.80;65.36
25080;BME280;13071;48.868;9.996;2023-06-14T00:34:17;96060.44;;;12.67;65.39
25080;BME280;13071;48.868;9.996;2023-06-14T00:36:43;96069.28;;;12.64;65.62
25080;BME280;13071;48.868;9.996;2023-06-14T00:39:12;96071.97;;;12.64;65.73
25080;BME280;13071;48.868;9.996;2023-06-14T00:41:39;96072.28;;;12.59;66.54
25080;BME280;13071;48.868;9.996;2023-06-14T00:44:06;96069.75;;;12.50;66.63
25080;BME280;13071;48.868;9.996;2023-06-14T00:46:34;96070.84;;;12.46;66.72
25080;BME280;13071;48.868;9.996;2023-06-14T00:49:01;96067.25;;;12.42;67.21
25080;BME280;13071;48.868;9.996;2023-06-14T00:51:30;96077.84;;;12.47;67.39
25080;BME280;13071;48.868;9.996;2023-06-14T00:53:56;96076.59;;;12.44;66.70
25080;BME280;13071;48.868;9.996;2023-06-14T00:56:24;96076.09;;;12.39;67.21
25080;BME280;13071;48.868;9.996;2023-06-14T00:58:51;96072.53;;;12.35;66.84
25080;BME280;13071;48.868;9.996;2023-06-14T01:01:18;96073.66;;;12.34;67.20
25080;BME280;13071;48.868;9.996;2023-06-14T01:03:46;96078.72;;;12.35;66.55
25080;BME280;13071;48.868;9.996;2023-06-14T01:06:19;96067.25;;;12.42;66.46
25080;BME280;13071;48.868;9.996;2023-06-14T01:09:03;96068.41;;;12.41;66.56
25080;BME280;13071;48.868;9.996;2023-06-14T01:11:40;96072.69;;;12.42;66.67
25080;BME280;13071;48.868;9.996;2023-06-14T01:14:07;96069.47;;;12.36;66.79
25080;BME280;13071;48.868;9.996;2023-06-14T01:16:36;96070.94;;;12.34;67.05
25080;BME280;13071;48.868;9.996;2023-06-14T01:19:07;96084.88;;;12.32;66.47
25080;BME280;13071;48.868;9.996;2023-06-14T01:21:39;96082.00;;;12.25;66.77
25080;BME280;13071;48.868;9.996;2023-06-14T01:24:09;96068.78;;;12.24;67.00
25080;BME280;13071;48.868;9.996;2023-06-14T01:26:36;96074.38;;;12.31;66.89
25080;BME280;13071;48.868;9.996;2023-06-14T01:29:04;96070.53;;;12.32;66.99
25080;BME280;13071;48.868;9.996;2023-06-14T01:31:32;96060.38;;;12.29;67.01
25080;BME280;13071;48.868;9.996;2023-06-14T01:34:06;96070.88;;;12.30;66.95
25080;BME280;13071;48.868;9.996;2023-06-14T01:36:34;96074.19;;;12.24;67.22
25080;BME280;13071;48.868;9.996;2023-06-14T01:39:04;96068.78;;;12.24;65.49
25080;BME280;13071;48.868;9.996;2023-06-14T01:41:33;96068.44;;;12.25;65.85
25080;BME280;13071;48.868;9.996;2023-06-14T01:44:01;96071.44;;;12.04;67.08
25080;BME280;13071;48.868;9.996;2023-06-14T01:46:28;96068.13;;;11.95;67.67
25080;BME280;13071;48.868;9.996;2023-06-14T01:48:55;96071.63;;;11.96;67.68
25080;BME280;13071;48.868;9.996;2023-06-14T01:51:21;96064.72;;;11.98;68.07
25080;BME280;13071;48.868;9.996;2023-06-14T01:53:48;96069.16;;;12.06;67.57
25080;BME280;13071;48.868;9.996;2023-06-14T01:56:15;96062.50;;;12.04;67.54
25080;BME280;13071;48.868;9.996;2023-06-14T01:58:43;96073.72;;;12.02;67.75
25080;BME280;13071;48.868;9.996;2023-06-14T02:01:09;96064.56;;;11.91;67.94
25080;BME280;13071;48.868;9.996;2023-06-14T02:03:36;96070.84;;;11.95;68.32
25080;BME280;13071;48.868;9.996;2023-06-14T02:06:04;96066.41;;;11.87;68.72
25080;BME280;13071;48.868;9.996;2023-06-14T02:08:30;96074.19;;;11.89;68.23
25080;BME280;13071;48.868;9.996;2023-06-14T02:10:57;96073.47;;;11.92;69.05
25080;BME280;13071;48.868;9.996;2023-06-14T02:13:23;96069.53;;;11.89;68.72
25080;BME280;13071;48.868;9.996;2023-06-14T02:15:51;96076.72;;;11.82;68.79
25080;BME280;13071;48.868;9.996;2023-06-14T02:18:19;96068.59;;;11.82;69.22
25080;BME280;13071;48.868;9.996;2023-06-14T02:20:46;96063.63;;;11.84;68.71
25080;BME280;13071;48.868;9.996;2023-06-14T02:23:13;96065.16;;;11.69;68.51
25080;BME280;13071;48.868;9.996;2023-06-14T02:25:40;96063.78;;;11.75;68.15
25080;BME280;13071;48.868;9.996;2023-06-14T02:28:08;96064.72;;;11.67;69.25
25080;BME280;13071;48.868;9.996;2023-06-14T02:30:35;96063.13;;;11.66;69.10
25080;BME280;13071;48.868;9.996;2023-06-14T02:33:03;96064.63;;;11.63;69.64
25080;BME280;13071;48.868;9.996;2023-06-14T02:35:30;96065.78;;;11.78;69.36
25080;BME280;13071;48.868;9.996;2023-06-14T02:37:56;96062.88;;;11.71;68.99
25080;BME280;13071;48.868;9.996;2023-06-14T02:40:23;96065.31;;;11.60;69.24
25080;BME280;13071;48.868;9.996;2023-06-14T02:42:50;96070.19;;;11.55;69.47
25080;BME280;13071;48.868;9.996;2023-06-14T02:45:17;96067.50;;;11.55;69.36
25080;BME280;13071;48.868;9.996;2023-06-14T02:47:44;96070.56;;;11.53;69.17
25080;BME280;13071;48.868;9.996;2023-06-14T02:50:12;96073.28;;;11.53;69.70
25080;BME280;13071;48.868;9.996;2023-06-14T02:52:39;96076.06;;;11.57;69.71
25080;BME280;13071;48.868;9.996;2023-06-14T02:55:07;96074.88;;;11.54;69.43
25080;BME280;13071;48.868;9.996;2023-06-14T02:57:34;96081.66;;;11.48;69.83
25080;BME280;13071;48.868;9.996;2023-06-14T03:00:01;96077.09;;;11.37;69.87
25080;BME280;13071;48.868;9.996;2023-06-14T03:02:28;96073.69;;;11.40;70.52
25080;BME280;13071;48.868;9.996;2023-06-14T03:04:56;96075.88;;;11.34;70.12
25080;BME280;13071;48.868;9.996;2023-06-14T03:07:28;96073.78;;;11.27;69.59
25080;BME280;13071;48.868;9.996;2023-06-14T03:09:55;96078.75;;;11.25;70.23
25080;BME280;13071;48.868;9.996;2023-06-14T03:12:21;96075.34;;;11.29;70.22
25080;BME280;13071;48.868;9.996;2023-06-14T03:14:48;96073.56;;;11.20;70.63
25080;BME280;13071;48.868;9.996;2023-06-14T03:17:16;96070.00;;;11.16;71.43
25080;BME280;13071;48.868;9.996;2023-06-14T03:19:44;96072.97;;;11.27;70.82
25080;BME280;13071;48.868;9.996;2023-06-14T03:22:11;96071.94;;;11.32;71.04
25080;BME280;13071;48.868;9.996;2023-06-14T03:24:39;96073.25;;;11.38;70.22
25080;BME280;13071;48.868;9.996;2023-06-14T03:27:06;96076.47;;;11.27;70.75
25080;BME280;13071;48.868;9.996;2023-06-14T03:29:35;96082.66;;;11.12;70.79
25080;BME280;13071;48.868;9.996;2023-06-14T03:32:02;96078.47;;;11.15;71.35
25080;BME280;13071;48.868;9.996;2023-06-14T03:34:29;96078.06;;;11.01;71.39
25080;BME280;13071;48.868;9.996;2023-06-14T03:36:56;96077.44;;;11.19;71.17
25080;BME280;13071;48.868;9.996;2023-06-14T03:39:22;96088.66;;;11.34;70.82
25080;BME280;13071;48.868;9.996;2023-06-14T03:41:50;96087.06;;;11.33;71.25
25080;BME280;13071;48.868;9.996;2023-06-14T03:44:18;96089.94;;;11.24;71.39
25080;BME280;13071;48.868;9.996;2023-06-14T03:46:44;96095.69;;;11.22;70.87
25080;BME280;13071;48.868;9.996;2023-06-14T03:49:12;96097.03;;;11.29;71.53
25080;BME280;13071;48.868;9.996;2023-06-14T03:51:38;96102.72;;;11.55;71.03
25080;BME280;13071;48.868;9.996;2023-06-14T03:54:06;96106.81;;;12.08;69.81
25080;BME280;13071;48.868;9.996;2023-06-14T03:56:32;96107.72;;;12.66;67.34
25080;BME280;13071;48.868;9.996;2023-06-14T03:59:00;96106.13;;;13.84;63.45
25080;BME280;13071;48.868;9.996;2023-06-14T04:01:27;96102.59;;;14.85;60.83
25080;BME280;13071;48.868;9.996;2023-06-14T04:03:55;96102.91;;;15.77;58.51
25080;BME280;13071;48.868;9.996;2023-06-14T04:06:22;96115.31;;;16.15;56.74
25080;BME280;13071;48.868;9.996;2023-06-14T04:08:50;96104.09;;;16.81;54.94
25080;BME280;13071;48.868;9.996;2023-06-14T04:11:17;96105.94;;;17.53;53.77
25080;BME280;13071;48.868;9.996;2023-06-14T04:13:44;96109.44;;;17.57;53.35
25080;BME280;13071;48.868;9.996;2023-06-14T04:16:13;96107.97;;;17.92;51.65
25080;BME280;13071;48.868;9.996;2023-06-14T04:18:40;96110.72;;;18.73;51.14
25080;BME280;13071;48.868;9.996;2023-06-14T04:21:07;96115.72;;;19.14;49.39
25080;BME280;13071;48.868;9.996;2023-06-14T04:23:33;96104.94;;;19.62;48.96
25080;BME280;13071;48.868;9.996;2023-06-14T04:26:00;96109.66;;;20.16;48.81
25080;BME280;13071;48.868;9.996;2023-06-14T04:28:28;96108.53;;;20.58;48.29
25080;BME280;13071;48.868;9.996;2023-06-14T04:30:55;96112.13;;;20.55;47.73
25080;BME280;13071;48.868;9.996;2023-06-14T04:33:23;96103.63;;;20.80;46.15
25080;BME280;13071;48.868;9.996;2023-06-14T04:35:50;96110.88;;;20.60;46.20
25080;BME280;13071;48.868;9.996;2023-06-14T04:38:19;96104.81;;;20.35;46.39
25080;BME280;13071;48.868;9.996;2023-06-14T04:40:50;96108.41;;;21.10;44.94
25080;BME280;13071;48.868;9.996;2023-06-14T04:43:18;96102.72;;;20.90;45.67
25080;BME280;13071;48.868;9.996;2023-06-14T04:45:53;96115.03;;;21.12;44.98
25080;BME280;13071;48.868;9.996;2023-06-14T04:48:23;96097.56;;;22.17;42.67
25080;BME280;13071;48.868;9.996;2023-06-14T04:50:50;96108.75;;;20.78;44.77
25080;BME280;13071;48.868;9.996;2023-06-14T04:53:18;96113.81;;;21.21;44.99
25080;BME280;13071;48.868;9.996;2023-06-14T04:55:46;96110.53;;;21.93;43.23
25080;BME280;13071;48.868;9.996;2023-06-14T04:58:13;96116.81;;;21.94;44.14
25080;BME280;13071;48.868;9.996;2023-06-14T05:00:40;96123.22;;;22.14;42.58
25080;BME280;13071;48.868;9.996;2023-06-14T05:03:07;96123.88;;;21.91;44.60
25080;BME280;13071;48.868;9.996;2023-06-14T05:05:35;96125.69;;;22.32;43.42
25080;BME280;13071;48.868;9.996;2023-06-14T05:08:02;96134.75;;;21.45;44.57
25080;BME280;13071;48.868;9.996;2023-06-14T05:10:28;96132.75;;;20.26;46.80
25080;BME280;13071;48.868;9.996;2023-06-14T05:12:55;96138.59;;;20.28;47.59
25080;BME280;13071;48.868;9.996;2023-06-14T05:15:22;96134.28;;;20.79;46.63
25080;BME280;13071;48.868;9.996;2023-06-14T05:17:51;96124.28;;;20.54;46.64
25080;BME280;13071;48.868;9.996;2023-06-14T05:20:20;96126.31;;;20.88;45.53
25080;BME280;13071;48.868;9.996;2023-06-14T05:22:49;96125.91;;;20.48;47.28
25080;BME280;13071;48.868;9.996;2023-06-14T05:25:17;96126.88;;;20.72;47.12
25080;BME280;13071;48.868;9.996;2023-06-14T05:27:43;96129.78;;;20.54;46.77
25080;BME280;13071;48.868;9.996;2023-06-14T05:30:11;96136.34;;;20.16;48.26
25080;BME280;13071;48.868;9.996;2023-06-14T05:32:38;96136.91;;;20.48;47.20
25080;BME280;13071;48.868;9.996;2023-06-14T05:35:06;96139.19;;;20.02;49.10
25080;BME280;13071;48.868;9.996;2023-06-14T05:37:32;96141.38;;;19.59;50.42
25080;BME280;13071;48.868;9.996;2023-06-14T05:40:00;96149.91;;;19.82;49.21
25080;BME280;13071;48.868;9.996;2023-06-14T05:42:29;96149.94;;;19.75;49.96
25080;BME280;13071;48.868;9.996;2023-06-14T05:44:56;96150.19;;;19.11;50.76
25080;BME280;13071;48.868;9.996;2023-06-14T05:47:22;96162.41;;;18.29;52.85
25080;BME280;13071;48.868;9.996;2023-06-14T05:49:49;96158.50;;;18.62;52.51
25080;BME280;13071;48.868;9.996;2023-06-14T05:52:15;96156.53;;;18.23;53.31
25080;BME280;13071;48.868;9.996;2023-06-14T05:54:42;96158.66;;;17.47;56.82
25080;BME280;13071;48.868;9.996;2023-06-14T05:57:10;96157.25;;;17.88;54.50
25080;BME280;13071;48.868;9.996;2023-06-14T05:59:37;96161.19;;;17.91;54.38
25080;BME280;13071;48.868;9.996;2023-06-14T06:02:03;96167.69;;;17.58;56.25
25080;BME280;13071;48.868;9.996;2023-06-14T06:04:30;96163.06;;;17.76;55.39
25080;BME280;13071;48.868;9.996;2023-06-14T06:06:57;96154.91;;;17.83;55.62
25080;BME280;13071;48.868;9.996;2023-06-14T06:09:23;96157.28;;;18.06;55.23
25080;BME280;13071;48.868;9.996;2023-06-14T06:11:50;96162.00;;;18.44;53.68
25080;BME280;13071;48.868;9.996;2023-06-14T06:14:18;96158.09;;;18.28;54.74
25080;BME280;13071;48.868;9.996;2023-06-14T06:16:44;96153.38;;;18.46;55.34
25080;BME280;13071;48.868;9.996;2023-06-14T06:19:11;96155.75;;;18.44;54.68
25080;BME280;13071;48.868;9.996;2023-06-14T06:21:38;96160.44;;;18.72;54.23
25080;BME280;13071;48.868;9.996;2023-06-14T06:24:05;96173.38;;;18.53;54.68
25080;BME280;13071;48.868;9.996;2023-06-14T06:26:32;96169.03;;;18.81;54.61
25080;BME280;13071;48.868;9.996;2023-06-14T06:28:58;96180.78;;;18.46;56.69
25080;BME280;13071;48.868;9.996;2023-06-14T06:31:26;96178.06;;;18.67;54.01
25080;BME280;13071;48.868;9.996;2023-06-14T06:33:53;96183.94;;;18.73;53.85
25080;BME280;13071;48.868;9.996;2023-06-14T06:36:21;96178.81;;;18.46;54.27
25080;BME280;13071;48.868;9.996;2023-06-14T06:38:47;96168.25;;;18.09;55.44
25080;BME280;13071;48.868;9.996;2023-06-14T06:41:14;96173.34;;;18.89;55.48
25080;BME280;13071;48.868;9.996;2023-06-14T06:43:41;96178.81;;;18.96;55.06
25080;BME280;13071;48.868;9.996;2023-06-14T06:46:07;96175.69;;;18.87;52.75
25080;BME280;13071;48.868;9.996;2023-06-14T06:48:35;96177.19;;;19.16;52.63
25080;BME280;13071;48.868;9.996;2023-06-14T06:51:02;96180.28;;;19.32;51.68
25080;BME280;13071;48.868;9.996;2023-06-14T06:53:28;96186.66;;;18.90;53.62
25080;BME280;13071;48.868;9.996;2023-06-14T06:55:55;96181.56;;;19.03;52.37
25080;BME280;13071;48.868;9.996;2023-06-14T06:58:22;96182.66;;;19.20;53.46
25080;BME280;13071;48.868;9.996;2023-06-14T07:00:48;96183.47;;;19.20;54.07
25080;BME280;13071;48.868;9.996;2023-06-14T07:03:15;96187.47;;;18.84;53.00
25080;BME280;13071;48.868;9.996;2023-06-14T07:05:43;96195.28;;;18.46;53.91
25080;BME280;13071;48.868;9.996;2023-06-14T07:08:10;96189.34;;;19.15;53.29
25080;BME280;13071;48.868;9.996;2023-06-14T07:10:36;96187.84;;;18.82;55.35
25080;BME280;13071;48.868;9.996;2023-06-14T07:13:03;96193.34;;;18.82;53.93
25080;BME280;13071;48.868;9.996;2023-06-14T07:15:30;96198.75;;;19.28;53.87
25080;BME280;13071;48.868;9.996;2023-06-14T07:17:58;96199.47;;;19.36;53.05
25080;BME280;13071;48.868;9.996;2023-06-14T07:20:25;96194.81;;;19.33;51.43
25080;BME280;13071;48.868;9.996;2023-06-14T07:22:53;96201.75;;;19.66;52.98
25080;BME280;13071;48.868;9.996;2023-06-14T07:25:20;96199.81;;;19.66;52.75
25080;BME280;13071;48.868;9.996;2023-06-14T07:27:47;96218.97;;;19.77;51.33
25080;BME280;13071;48.868;9.996;2023-06-14T07:30:14;96203.81;;;19.37;52.25
25080;BME280;13071;48.868;9.996;2023-06-14T07:32:40;96210.06;;;19.30;53.18
25080;BME280;13071;48.868;9.996;2023-06-14T07:35:07;96215.41;;;19.83;52.03
25080;BME280;13071;48.868;9.996;2023-06-14T07:37:34;96207.31;;;19.52;50.83
25080;BME280;13071;48.868;9.996;2023-06-14T07:40:03;96223.50;;;20.12;51.22
25080;BME280;13071;48.868;9.996;2023-06-14T07:42:33;96217.84;;;19.64;49.69
25080;BME280;13071;48.868;9.996;2023-06-14T07:44:59;96224.56;;;19.52;51.43
25080;BME280;13071;48.868;9.996;2023-06-14T07:47:26;96218.28;;;19.52;52.08
25080;BME280;13071;48.868;9.996;2023-06-14T07:49:52;96229.59;;;19.64;51.83
25080;BME280;13071;48.868;9.996;2023-06-14T07:52:19;96219.47;;;19.47;52.44
25080;BME280;13071;48.868;9.996;2023-06-14T07:54:46;96226.56;;;19.27;53.78
25080;BME280;13071;48.868;9.996;2023-06-14T07:57:14;96228.72;;;19.85;51.58
25080;BME280;13071;48.868;9.996;2023-06-14T07:59:40;96221.38;;;20.41;51.98
25080;BME280;13071;48.868;9.996;2023-06-14T08:02:07;96225.59;;;20.52;51.40
25080;BME280;13071;48.868;9.996;2023-06-14T08:04:33;96219.50;;;20.31;49.79
25080;BME280;13071;48.868;9.996;2023-06-14T08:07:00;96219.13;;;20.80;50.24
25080;BME280;13071;48.868;9.996;2023-06-14T08:09:27;96222.34;;;20.72;50.87
25080;BME280;13071;48.868;9.996;2023-06-14T08:11:55;96224.09;;;20.96;50.38
25080;BME280;13071;48.868;9.996;2023-06-14T08:14:23;96229.53;;;20.55;50.29
25080;BME280;13071;48.868;9.996;2023-06-14T08:16:49;96225.28;;;20.47;49.21
25080;BME280;13071;48.868;9.996;2023-06-14T08:19:16;96237.47;;;19.62;51.00
25080;BME280;13071;48.868;9.996;2023-06-14T08:21:43;96229.50;;;20.62;49.95
25080;BME280;13071;48.868;9.996;2023-06-14T08:24:10;96234.16;;;21.13;48.70
25080;BME280;13071;48.868;9.996;2023-06-14T08:26:38;96229.31;;;20.83;49.16
25080;BME280;13071;48.868;9.996;2023-06-14T08:29:05;96227.50;;;21.07;48.09
25080;BME280;13071;48.868;9.996;2023-06-14T08:31:34;96223.91;;;21.21;49.06
25080;BME280;13071;48.868;9.996;2023-06-14T08:34:00;96228.88;;;20.88;47.71
25080;BME280;13071;48.868;9.996;2023-06-14T08:36:27;96227.97;;;21.43;48.97
25080;BME280;13071;48.868;9.996;2023-06-14T08:38:53;96228.53;;;21.27;48.14
25080;BME280;13071;48.868;9.996;2023-06-14T08:41:21;96233.88;;;21.41;46.86
25080;BME280;13071;48.868;9.996;2023-06-14T08:43:49;96239.72;;;21.47;46.69
25080;BME280;13071;48.868;9.996;2023-06-14T08:46:18;96232.50;;;21.60;47.30
25080;BME280;13071;48.868;9.996;2023-06-14T08:48:48;96236.56;;;21.48;47.58
25080;BME280;13071;48.868;9.996;2023-06-14T08:51:18;96237.75;;;21.47;48.42
25080;BME280;13071;48.868;9.996;2023-06-14T08:53:52;96240.28;;;21.69;46.09
25080;BME280;13071;48.868;9.996;2023-06-14T08:56:19;96240.66;;;22.05;48.28
25080;BME280;13071;48.868;9.996;2023-06-14T08:58:48;96245.66;;;21.79;45.98
25080;BME280;13071;48.868;9.996;2023-06-14T09:01:15;96236.22;;;21.80;46.41
25080;BME280;13071;48.868;9.996;2023-06-14T09:03:43;96236.94;;;22.18;44.83
25080;BME280;13071;48.868;9.996;2023-06-14T09:06:11;96242.91;;;22.13;45.50
25080;BME280;13071;48.868;9.996;2023-06-14T09:08:41;96236.66;;;22.09;45.29
25080;BME280;13071;48.868;9.996;2023-06-14T09:11:08;96241.38;;;22.09;46.63
25080;BME280;13071;48.868;9.996;2023-06-14T09:16:04;96243.75;;;21.73;45.25
25080;BME280;13071;48.868;9.996;2023-06-14T09:18:35;96240.88;;;21.83;45.85
25080;BME280;13071;48.868;9.996;2023-06-14T09:21:01;96241.84;;;21.70;47.26
25080;BME280;13071;48.868;9.996;2023-06-14T09:23:33;96238.84;;;22.21;45.37
25080;BME280;13071;48.868;9.996;2023-06-14T09:26:00;96230.84;;;22.57;44.89
25080;BME280;13071;48.868;9.996;2023-06-14T09:28:27;96240.72;;;22.55;45.78
25080;BME280;13071;48.868;9.996;2023-06-14T09:30:54;96236.53;;;22.70;44.38
25080;BME280;13071;48.868;9.996;2023-06-14T09:33:21;96232.94;;;22.76;45.27
25080;BME280;13071;48.868;9.996;2023-06-14T09:35:51;96236.97;;;22.68;44.62
25080;BME280;13071;48.868;9.996;2023-06-14T09:38:17;96247.31;;;22.07;45.44
25080;BME280;13071;48.868;9.996;2023-06-14T09:40:45;96245.09;;;22.52;44.41
25080;BME280;13071;48.868;9.996;2023-06-14T09:43:12;96241.00;;;22.37;45.15
25080;BME280;13071;48.868;9.996;2023-06-14T09:45:39;96235.00;;;21.81;44.32
25080;BME280;13071;48.868;9.996;2023-06-14T09:48:06;96253.25;;;21.68;45.93
25080;BME280;13071;48.868;9.996;2023-06-14T09:50:34;96249.00;;;22.28;44.52
25080;BME280;13071;48.868;9.996;2023-06-14T09:53:03;96247.13;;;22.48;42.47
25080;BME280;13071;48.868;9.996;2023-06-14T09:55:34;96237.66;;;22.76;43.95
25080;BME280;13071;48.868;9.996;2023-06-14T09:58:04;96245.66;;;22.13;43.79
25080;BME280;13071;48.868;9.996;2023-06-14T10:00:32;96237.38;;;22.67;43.04
25080;BME280;13071;48.868;9.996;2023-06-14T10:03:03;96246.34;;;22.74;42.47
25080;BME280;13071;48.868;9.996;2023-06-14T10:05:35;96240.50;;;21.81;43.09
25080;BME280;13071;48.868;9.996;2023-06-14T10:08:05;96245.38;;;22.04;43.43
25080;BME280;13071;48.868;9.996;2023-06-14T10:10:34;96236.38;;;22.84;43.74
25080;BME280;13071;48.868;9.996;2023-06-14T10:13:00;96228.38;;;22.90;41.29
25080;BME280;13071;48.868;9.996;2023-06-14T10:15:32;96227.47;;;22.96;42.11
25080;BME280;13071;48.868;9.996;2023-06-14T10:18:07;96253.81;;;22.77;42.82
25080;BME280;13071;48.868;9.996;2023-06-14T10:20:42;96242.38;;;22.22;43.74
25080;BME280;13071;48.868;9.996;2023-06-14T10:23:15;96246.00;;;21.47;44.23
25080;BME280;13071;48.868;9.996;2023-06-14T10:25:43;96246.88;;;21.41;44.56
25080;BME280;13071;48.868;9.996;2023-06-14T10:28:18;96234.81;;;21.28;45.40
25080;BME280;13071;48.868;9.996;2023-06-14T10:31:04;96236.06;;;21.57;43.59
25080;BME280;13071;48.868;9.996;2023-06-14T10:33:30;96236.16;;;21.84;44.59
25080;BME280;13071;48.868;9.996;2023-06-14T10:36:24;96239.03;;;22.07;42.69
25080;BME280;13071;48.868;9.996;2023-06-14T10:39:04;96229.63;;;21.71;41.50
25080;BME280;13071;48.868;9.996;2023-06-14T10:41:33;96235.16;;;22.05;43.72
25080;BME280;13071;48.868;9.996;2023-06-14T10:46:54;96224.66;;;22.50;41.81
25080;BME280;13071;48.868;9.996;2023-06-14T10:49:37;96215.53;;;22.79;42.17
25080;BME280;13071;48.868;9.996;2023-06-14T10:52:08;96218.56;;;22.89;40.78
25080;BME280;13071;48.868;9.996;2023-06-14T10:55:01;96215.31;;;23.17;41.44
25080;BME280;13071;48.868;9.996;2023-06-14T10:57:29;96210.84;;;23.66;39.21
25080;BME280;13071;48.868;9.996;2023-06-14T10:59:57;96224.75;;;23.62;40.03
25080;BME280;13071;48.868;9.996;2023-06-14T11:02:49;96210.34;;;23.08;39.63
25080;BME280;13071;48.868;9.996;2023-06-14T11:05:24;96215.91;;;24.27;39.76
25080;BME280;13071;48.868;9.996;2023-06-14T11:08:01;96220.59;;;23.08;39.38
25080;BME280;13071;48.868;9.996;2023-06-14T11:10:36;96211.13;;;23.91;37.58
25080;BME280;13071;48.868;9.996;2023-06-14T11:13:03;96212.25;;;23.94;37.46
25080;BME280;13071;48.868;9.996;2023-06-14T11:15:30;96206.34;;;24.31;38.38
25080;BME280;13071;48.868;9.996;2023-06-14T11:18:00;96213.94;;;24.27;38.26
25080;BME280;13071;48.868;9.996;2023-06-14T11:20:29;96206.16;;;24.02;38.53
25080;BME280;13071;48.868;9.996;2023-06-14T11:22:56;96213.25;;;24.39;38.33
25080;BME280;13071;48.868;9.996;2023-06-14T11:25:23;96214.16;;;24.69;37.76
25080;BME280;13071;48.868;9.996;2023-06-14T11:27:50;96203.44;;;24.87;36.56
25080;BME280;13071;48.868;9.996;2023-06-14T11:30:17;96201.09;;;25.18;35.75
25080;BME280;13071;48.868;9.996;2023-06-14T11:32:46;96204.97;;;25.20;36.87
25080;BME280;13071;48.868;9.996;2023-06-14T11:35:14;96200.03;;;25.28;36.17
25080;BME280;13071;48.868;9.996;2023-06-14T11:37:41;96206.47;;;24.92;38.93
25080;BME280;13071;48.868;9.996;2023-06-14T11:40:11;96202.63;;;25.19;38.02
25080;BME280;13071;48.868;9.996;2023-06-14T11:42:39;96199.09;;;25.02;37.96
25080;BME280;13071;48.868;9.996;2023-06-14T11:45:08;96198.41;;;24.49;38.03
25080;BME280;13071;48.868;9.996;2023-06-14T11:47:35;96206.75;;;24.30;38.18
25080;BME280;13071;48.868;9.996;2023-06-14T11:50:03;96202.09;;;24.07;39.03
25080;BME280;13071;48.868;9.996;2023-06-14T11:52:32;96200.63;;;24.02;38.98
25080;BME280;13071;48.868;9.996;2023-06-14T11:54:59;96191.88;;;23.88;39.46
25080;BME280;13071;48.868;9.996;2023-06-14T11:57:25;96192.25;;;24.06;39.04
25080;BME280;13071;48.868;9.996;2023-06-14T11:59:54;96189.94;;;24.40;36.89
25080;BME280;13071;48.868;9.996;2023-06-14T12:02:21;96185.88;;;24.77;36.42
25080;BME280;13071;48.868;9.996;2023-06-14T12:04:50;96190.94;;;23.75;38.43
25080;BME280;13071;48.868;9.996;2023-06-14T12:07:18;96201.91;;;23.78;37.95
25080;BME280;13071;48.868;9.996;2023-06-14T12:10:07;96198.38;;;24.33;36.12
25080;BME280;13071;48.868;9.996;2023-06-14T12:12:36;96193.91;;;24.39;39.79
25080;BME280;13071;48.868;9.996;2023-06-14T12:15:04;96192.38;;;24.19;40.29
25080;BME280;13071;48.868;9.996;2023-06-14T12:17:32;96190.31;;;23.24;42.35
25080;BME280;13071;48.868;9.996;2023-06-14T12:19:59;96185.97;;;23.03;40.62
25080;BME280;13071;48.868;9.996;2023-06-14T12:22:31;96191.50;;;23.03;41.74
25080;BME280;13071;48.868;9.996;2023-06-14T12:24:58;96186.88;;;23.99;40.04
25080;BME280;13071;48.868;9.996;2023-06-14T12:27:26;96187.91;;;22.83;40.52
25080;BME280;13071;48.868;9.996;2023-06-14T12:30:03;96193.59;;;22.96;40.32
25080;BME280;13071;48.868;9.996;2023-06-14T12:32:32;96187.34;;;22.92;42.53
25080;BME280;13071;48.868;9.996;2023-06-14T12:34:59;96195.47;;;22.79;41.57
25080;BME280;13071;48.868;9.996;2023-06-14T12:37:26;96199.72;;;23.50;40.32
25080;BME280;13071;48.868;9.996;2023-06-14T12:39:52;96201.63;;;22.87;41.04
25080;BME280;13071;48.868;9.996;2023-06-14T12:42:19;96203.78;;;22.75;40.29
25080;BME280;13071;48.868;9.996;2023-06-14T12:44:47;96196.09;;;23.10;40.86
25080;BME280;13071;48.868;9.996;2023-06-14T12:47:13;96202.16;;;22.51;41.05
25080;BME280;13071;48.868;9.996;2023-06-14T12:49:40;96209.81;;;22.40;41.66
25080;BME280;13071;48.868;9.996;2023-06-14T12:52:08;96200.91;;;23.06;41.53
25080;BME280;13071;48.868;9.996;2023-06-14T12:54:35;96194.56;;;23.72;40.37
25080;BME280;13071;48.868;9.996;2023-06-14T12:57:01;96194.63;;;23.88;39.33
25080;BME280;13071;48.868;9.996;2023-06-14T12:59:28;96190.13;;;23.94;39.75
25080;BME280;13071;48.868;9.996;2023-06-14T13:02:00;96196.34;;;23.39;39.48
25080;BME280;13071;48.868;9.996;2023-06-14T13:04:36;96193.91;;;23.84;39.65
25080;BME280;13071;48.868;9.996;2023-06-14T13:07:02;96191.38;;;22.87;39.78
25080;BME280;13071;48.868;9.996;2023-06-14T13:09:29;96187.50;;;23.28;38.48
25080;BME280;13071;48.868;9.996;2023-06-14T13:11:56;96192.16;;;22.88;39.01